Time;durP1;ratioP1;P1;durP2;ratioP2;P2;SDS_P1;SDS_P2;PMS_P1;PMS_P2;Temp;Humidity;BMP_temperature;BMP_pressure;BME280_temperature;BME280_humidity;BME280_pressure;Samples;Min_cycle;Max_cycle;Signal;HPM_P1;HPM_P2
2021/07/13 00:02:16;;;;;;;6.17;5.58;;;;;;;21.22;73.72;99510.14;1626507;86;21027;-69
2021/07/13 00:04:43;;;;;;;6.97;4.67;;;;;;;21.24;73.77;99509.77;1641663;87;21103;-69
2021/07/13 00:07:09;;;;;;;6.53;4.78;;;;;;;21.26;73.84;99511.55;1641350;87;21110;-69
2021/07/13 00:09:37;;;;;;;8.03;5.37;;;;;;;21.26;73.75;99512.37;1641488;86;21043;-69
2021/07/13 00:12:04;;;;;;;7.80;5.80;;;;;;;21.28;73.52;99523.17;1639212;86;21310;-69
2021/07/13 00:14:32;;;;;;;8.83;6.10;;;;;;;21.29;73.27;99517.77;1641630;86;21619;-69
2021/07/13 00:16:59;;;;;;;8.73;5.67;;;;;;;21.29;73.18;99521.97;1641540;86;21055;-69
2021/07/13 00:19:26;;;;;;;6.50;5.58;;;;;;;21.25;73.51;99532.38;1641569;86;21103;-69
2021/07/13 00:21:52;;;;;;;8.60;5.65;;;;;;;21.24;73.64;99532.18;1641127;87;22040;-69
2021/07/13 00:24:18;;;;;;;8.93;5.67;;;;;;;21.23;73.63;99540.36;1641631;87;21071;-68
2021/07/13 00:26:45;;;;;;;9.83;5.92;;;;;;;21.19;73.48;99537.54;1639842;87;21067;-68
2021/07/13 00:29:11;;;;;;;6.50;5.62;;;;;;;21.12;73.73;99525.70;1641260;87;21111;-69
2021/07/13 00:31:39;;;;;;;10.75;6.12;;;;;;;21.00;73.76;99528.24;1641425;86;21079;-69
2021/07/13 00:34:05;;;;;;;7.70;5.55;;;;;;;20.97;73.97;99529.03;1641929;86;21326;-69
2021/07/13 00:36:32;;;;;;;6.87;5.42;;;;;;;20.91;74.13;99527.16;1650576;85;21057;-69
2021/07/13 00:38:58;;;;;;;6.55;5.58;;;;;;;20.82;74.20;99530.91;1671520;85;21580;-69
2021/07/13 00:41:25;;;;;;;10.60;6.35;;;;;;;20.77;74.61;99532.68;1667181;85;21019;-69
2021/07/13 00:43:51;;;;;;;7.20;5.35;;;;;;;20.74;74.87;99539.06;1671068;85;21118;-69
2021/07/13 00:46:18;;;;;;;10.25;5.95;;;;;;;20.67;75.14;99532.23;1671029;85;21966;-69
2021/07/13 00:48:44;;;;;;;7.03;6.25;;;;;;;20.70;75.30;99534.84;1671416;85;21011;-69
2021/07/13 00:51:11;;;;;;;8.23;6.00;;;;;;;20.74;75.10;99539.06;1671498;85;21109;-70
2021/07/13 00:53:42;;;;;;;5.83;5.10;;;;;;;20.75;74.96;99533.07;1671416;85;21018;-69
2021/07/13 00:56:10;;;;;;;6.37;5.72;;;;;;;20.76;75.08;99529.69;1629053;87;21083;-69
2021/07/13 00:58:37;;;;;;;6.80;6.00;;;;;;;20.78;74.88;99534.27;1671140;85;21164;-69
2021/07/13 01:01:06;;;;;;;9.85;6.12;;;;;;;20.80;74.73;99529.09;1671524;85;21531;-69
2021/07/13 01:03:34;;;;;;;7.72;5.90;;;;;;;20.82;74.52;99532.31;1671602;85;21066;-68
2021/07/13 01:06:01;;;;;;;8.08;5.92;;;;;;;20.75;74.73;99533.66;1671289;85;21093;-69
2021/07/13 01:08:38;;;;;;;8.95;5.85;;;;;;;20.75;74.92;99533.66;1671994;85;21090;-69
2021/07/13 01:11:49;;;;;;;6.97;5.92;;;;;;;20.71;75.03;99537.05;1671462;85;21605;-69
2021/07/13 01:14:36;;;;;;;6.60;5.03;;;;;;;20.65;75.14;99530.41;1671031;85;21107;-69
2021/07/13 01:17:13;;;;;;;10.18;6.00;;;;;;;20.64;75.47;99537.80;1670637;85;21074;-69
2021/07/13 01:20:23;;;;;;;7.08;6.20;;;;;;;20.60;75.71;99538.36;1671007;85;21070;-68
2021/07/13 01:22:56;;;;;;;7.20;5.87;;;;;;;20.61;75.75;99537.19;1668318;85;21012;-69
2021/07/13 01:25:42;;;;;;;8.68;6.30;;;;;;;20.61;75.71;99530.97;1671198;85;21031;-69
2021/07/13 01:28:22;;;;;;;8.48;6.78;;;;;;;20.60;75.55;99531.36;1657632;85;21070;-69
2021/07/13 01:30:54;;;;;;;7.95;6.17;;;;;;;20.58;75.70;99534.55;1667397;85;21038;-68
2021/07/13 01:33:24;;;;;;;;;;;;;;;20.54;75.72;99523.33;1673939;85;21097;-69
2021/07/13 01:36:06;;;;;;;7.03;5.25;;;;;;;20.55;75.83;99522.16;1671255;85;20183;-70
2021/07/13 01:38:39;;;;;;;7.80;5.80;;;;;;;20.55;75.71;99517.95;1668844;85;21143;-69
2021/07/13 01:41:11;;;;;;;8.95;5.75;;;;;;;20.58;75.51;99520.56;1671419;85;21038;-69
2021/07/13 01:43:40;;;;;;;9.00;5.60;;;;;;;20.61;75.30;99529.58;1671460;85;21114;-69
2021/07/13 01:46:07;;;;;;;6.65;5.53;;;;;;;20.62;75.12;99524.20;1671692;85;21035;-68
2021/07/13 01:48:36;;;;;;;8.05;5.72;;;;;;;20.63;75.00;99526.38;1671812;85;21015;-68
2021/07/13 01:51:05;;;;;;;7.42;5.70;;;;;;;20.64;75.12;99524.59;1671418;85;21098;-69
2021/07/13 01:53:33;;;;;;;5.83;5.22;;;;;;;20.66;75.00;99518.60;1671744;85;21094;-69
2021/07/13 01:56:01;;;;;;;6.67;5.45;;;;;;;20.66;74.88;99525.02;1671432;85;21050;-69
2021/07/13 01:58:28;;;;;;;8.38;5.35;;;;;;;20.67;74.83;99530.84;1671535;85;21044;-69
2021/07/13 02:00:59;;;;;;;8.30;5.58;;;;;;;20.67;74.77;99530.02;1671606;85;21032;-69
2021/07/13 02:03:26;;;;;;;8.18;5.87;;;;;;;20.69;74.74;99530.44;1652301;85;21816;-69
2021/07/13 02:05:56;;;;;;;7.62;6.33;;;;;;;20.68;74.63;99528.82;1671398;85;21090;-68
2021/07/13 02:08:22;;;;;;;9.00;6.60;;;;;;;20.67;74.69;99529.44;1671039;85;21058;-69
2021/07/13 02:10:49;;;;;;;8.73;5.72;;;;;;;20.69;74.68;99529.05;1671323;85;21038;-69
2021/07/13 02:13:18;;;;;;;6.08;5.12;;;;;;;20.68;74.62;99534.41;1671402;85;21033;-68
2021/07/13 02:15:46;;;;;;;6.47;5.62;;;;;;;20.66;74.69;99532.59;1671885;85;21519;-68
2021/07/13 02:18:14;;;;;;;7.75;5.67;;;;;;;20.67;74.73;99534.22;1671581;85;21106;-68
2021/07/13 02:20:43;;;;;;;17.57;5.10;;;;;;;20.65;74.67;99540.20;1671275;85;22213;-69
2021/07/13 02:23:09;;;;;;;9.00;5.30;;;;;;;20.65;74.74;99538.81;1667520;85;21071;-69
2021/07/13 02:25:37;;;;;;;7.83;5.47;;;;;;;20.69;74.82;99543.04;1671591;85;21031;-69
2021/07/13 02:28:27;;;;;;;13.28;5.42;;;;;;;20.66;75.13;99543.79;1671572;85;21127;-69
2021/07/13 02:30:58;;;;;;;8.40;4.95;;;;;;;20.66;75.31;99547.40;1668928;85;21080;-68
2021/07/13 02:33:29;;;;;;;8.55;5.72;;;;;;;20.66;75.38;99546.00;1671752;85;21146;-69
2021/07/13 02:36:04;;;;;;;9.18;5.00;;;;;;;20.68;75.40;99545.61;1671753;85;21020;-68
2021/07/13 02:38:31;;;;;;;6.28;5.15;;;;;;;20.72;75.30;99549.25;1639227;85;21048;-68
2021/07/13 02:40:57;;;;;;;9.65;5.65;;;;;;;20.76;75.26;99541.66;1632965;87;21526;-68
2021/07/13 02:43:24;;;;;;;6.75;4.97;;;;;;;20.79;75.23;99542.31;1632596;87;21047;-68
2021/07/13 02:45:53;;;;;;;9.95;5.25;;;;;;;20.82;75.24;99538.50;1633058;86;21021;-69
2021/07/13 02:48:19;;;;;;;5.60;5.10;;;;;;;20.86;75.09;99541.55;1632702;87;21032;-68
2021/07/13 02:50:47;;;;;;;5.95;5.37;;;;;;;20.89;74.91;99546.36;1629238;87;22210;-68
2021/07/13 02:53:13;;;;;;;5.70;5.10;;;;;;;20.92;74.81;99540.56;1630606;87;21757;-69
2021/07/13 02:55:41;;;;;;;8.13;5.25;;;;;;;20.97;74.77;99545.83;1632568;87;21150;-69
2021/07/13 02:58:09;;;;;;;8.85;4.97;;;;;;;21.02;74.66;99547.45;1632566;87;21063;-69
2021/07/13 03:00:36;;;;;;;8.10;5.35;;;;;;;21.04;74.53;99557.67;1632813;87;21016;-68
2021/07/13 03:03:02;;;;;;;9.50;4.70;;;;;;;21.07;74.53;99554.08;1632898;87;21111;-68
2021/07/13 03:05:29;;;;;;;7.35;5.17;;;;;;;21.11;74.49;99557.72;1632442;87;21193;-68
2021/07/13 03:07:55;;;;;;;11.20;5.28;;;;;;;21.16;74.64;99556.53;1632614;87;21520;-68
2021/07/13 03:10:26;;;;;;;10.15;4.83;;;;;;;21.18;74.65;99557.54;1632634;87;21148;-69
2021/07/13 03:12:54;;;;;;;5.75;5.15;;;;;;;21.19;74.69;99559.95;1632641;86;21104;-68
2021/07/13 03:15:23;;;;;;;7.10;5.30;;;;;;;21.20;74.74;99556.55;1632717;87;21059;-68
2021/07/13 03:17:52;;;;;;;10.50;5.85;;;;;;;21.14;74.86;99563.12;1632707;87;21096;-68
2021/07/13 03:20:21;;;;;;;12.37;5.80;;;;;;;21.12;75.25;99569.73;1622211;86;21282;-67
2021/07/13 03:22:48;;;;;;;7.10;5.30;;;;;;;21.13;75.33;99573.54;1630840;87;21380;-67
2021/07/13 03:25:27;;;;;;;7.40;5.50;;;;;;;21.15;75.71;99571.74;1632662;87;21043;-68
2021/07/13 03:27:55;;;;;;;5.97;5.25;;;;;;;21.20;75.88;99571.96;1637497;86;21068;-68
2021/07/13 03:30:21;;;;;;;7.35;5.35;;;;;;;21.23;75.76;99572.58;1620217;86;21122;-68
2021/07/13 03:32:49;;;;;;;5.33;4.83;;;;;;;21.28;75.51;99568.81;1632665;87;21041;-68
2021/07/13 03:35:18;;;;;;;9.65;5.60;;;;;;;21.35;75.08;99561.04;1618049;86;21055;-68
2021/07/13 03:37:47;;;;;;;7.35;5.28;;;;;;;21.42;74.82;99561.67;1643235;86;21509;-68
2021/07/13 03:40:15;;;;;;;5.97;5.00;;;;;;;21.50;74.69;99558.28;1631012;86;21142;-68
2021/07/13 03:42:44;;;;;;;6.20;5.60;;;;;;;21.56;74.50;99552.52;1658879;85;21326;-68
2021/07/13 03:45:15;;;;;;;8.93;5.22;;;;;;;21.62;74.42;99552.33;1658737;85;21114;-68
2021/07/13 03:47:45;;;;;;;8.65;5.70;;;;;;;21.69;74.34;99552.14;1647907;86;21028;-68
2021/07/13 03:50:16;;;;;;;9.35;6.12;;;;;;;21.74;74.25;99555.96;1635268;86;21055;-68
2021/07/13 03:52:43;;;;;;;7.20;5.50;;;;;;;21.81;74.19;99555.20;1659072;86;21415;-68
2021/07/13 03:55:11;;;;;;;10.90;5.95;;;;;;;21.85;73.93;99548.40;1659096;86;21563;-68
2021/07/13 03:57:39;;;;;;;8.78;6.05;;;;;;;21.88;73.79;99547.62;1658959;86;21047;-68
2021/07/13 04:00:16;;;;;;;26.95;6.58;;;;;;;21.94;73.82;99548.64;1658811;86;21582;-69
2021/07/13 04:02:43;;;;;;;13.65;7.00;;;;;;;21.97;73.83;99542.23;1656688;86;22177;-69
2021/07/13 04:05:12;;;;;;;21.00;7.42;;;;;;;21.94;73.79;99541.64;1658729;86;21087;-68
2021/07/13 04:07:41;;;;;;;14.00;6.30;;;;;;;21.93;73.80;99546.43;1658478;86;21071;-68
2021/07/13 04:10:13;;;;;;;11.93;5.60;;;;;;;21.95;73.95;99546.03;1658545;86;21107;-67
2021/07/13 04:12:42;;;;;;;11.08;6.10;;;;;;;22.00;74.27;99550.66;1656793;86;21053;-67
2021/07/13 04:15:11;;;;;;;15.75;6.30;;;;;;;22.05;74.26;99554.25;1658707;86;21071;-68
2021/07/13 04:17:38;;;;;;;30.15;8.73;;;;;;;22.11;74.16;99560.47;1655744;86;21322;-68
2021/07/13 04:20:08;;;;;;;24.72;6.25;;;;;;;22.24;74.33;99548.88;1658232;86;21143;-68
2021/07/13 04:22:37;;;;;;;25.15;7.15;;;;;;;22.35;74.13;99552.48;1658692;85;21062;-68
2021/07/13 04:25:07;;;;;;;28.12;6.62;;;;;;;22.52;73.54;99551.47;1656782;86;21551;-67
2021/07/13 04:27:33;;;;;;;11.97;5.17;;;;;;;22.66;72.92;99554.91;1666393;84;21042;-67
2021/07/13 04:30:04;;;;;;;9.80;4.75;;;;;;;22.80;72.30;99554.09;1618511;87;21102;-68
2021/07/13 04:32:32;;;;;;;4.22;3.83;;;;;;;22.96;71.24;99562.06;1655632;86;21563;-67
2021/07/13 04:34:59;;;;;;;5.00;3.85;;;;;;;23.13;70.48;99562.45;1655521;86;21625;-67
2021/07/13 04:37:25;;;;;;;4.60;4.20;;;;;;;23.29;69.29;99563.39;1654761;86;21103;-68
2021/07/13 04:39:52;;;;;;;6.72;4.20;;;;;;;23.44;68.49;99563.38;1648042;86;21080;-69
2021/07/13 04:42:19;;;;;;;7.03;4.40;;;;;;;23.56;68.06;99568.53;1649832;86;21059;-68
2021/07/13 04:44:45;;;;;;;4.83;4.33;;;;;;;23.68;67.80;99563.05;1647713;86;21113;-68
2021/07/13 04:47:12;;;;;;;5.12;3.67;;;;;;;23.77;67.16;99560.39;1649651;86;21027;-68
2021/07/13 04:49:41;;;;;;;7.67;4.72;;;;;;;23.80;66.64;99558.16;1660406;86;21531;-68
2021/07/13 04:52:09;;;;;;;7.70;3.80;;;;;;;23.80;65.74;99563.19;1660981;86;21088;-67
2021/07/13 04:54:35;;;;;;;4.80;3.55;;;;;;;23.80;65.26;99563.19;1660408;86;21024;-68
2021/07/13 04:57:05;;;;;;;4.78;3.98;;;;;;;23.80;65.44;99561.78;1660699;85;21552;-68
2021/07/13 04:59:31;;;;;;;7.37;3.90;;;;;;;23.83;65.29;99551.73;1660785;86;21046;-68
2021/07/13 05:01:57;;;;;;;5.53;4.00;;;;;;;23.89;65.50;99551.48;1630637;87;21586;-68
2021/07/13 05:04:24;;;;;;;4.50;4.10;;;;;;;23.97;65.57;99551.45;1625025;87;21068;-68
2021/07/13 05:06:50;;;;;;;4.60;3.85;;;;;;;24.05;65.10;99554.41;1630498;88;21544;-69
2021/07/13 05:09:19;;;;;;;7.28;3.85;;;;;;;24.14;64.86;99553.33;1658860;84;22139;-68
2021/07/13 05:11:45;;;;;;;6.58;3.90;;;;;;;24.21;64.57;99545.46;1661607;85;21007;-68
2021/07/13 05:14:13;;;;;;;8.83;3.85;;;;;;;24.28;64.52;99551.05;1615551;87;21687;-68
2021/07/13 05:16:40;;;;;;;6.25;4.20;;;;;;;24.36;64.42;99545.36;1626124;87;21055;-68
2021/07/13 05:19:09;;;;;;;4.85;4.00;;;;;;;24.41;64.13;99533.66;1615694;88;21071;-69
2021/07/13 05:21:36;;;;;;;11.78;4.30;;;;;;;24.46;64.06;99534.63;1625285;87;21152;-69
2021/07/13 05:24:04;;;;;;;5.15;3.80;;;;;;;24.57;63.97;99542.17;1616026;88;21111;-68
2021/07/13 05:26:31;;;;;;;4.22;3.80;;;;;;;24.61;63.25;99539.52;1625210;87;21533;-68
2021/07/13 05:29:01;;;;;;;10.25;4.67;;;;;;;24.67;62.88;99548.29;1611107;88;21059;-70
2021/07/13 05:31:27;;;;;;;5.15;4.10;;;;;;;24.71;62.58;99546.25;1625848;87;21040;-69
2021/07/13 05:33:57;;;;;;;10.05;3.45;;;;;;;24.75;62.53;99538.58;1615970;88;21119;-69
2021/07/13 05:36:24;;;;;;;6.80;3.92;;;;;;;24.80;62.18;99540.91;1625441;87;21111;-68
2021/07/13 05:38:53;;;;;;;6.58;4.08;;;;;;;24.86;62.34;99543.28;1622863;88;21152;-68
2021/07/13 05:41:21;;;;;;;4.55;3.85;;;;;;;24.92;62.30;99548.70;1665344;85;21071;-68
2021/07/13 05:43:50;;;;;;;6.65;4.12;;;;;;;24.98;61.57;99548.42;1668099;85;21042;-67
2021/07/13 05:46:16;;;;;;;6.05;4.08;;;;;;;25.06;60.89;99546.94;1639364;87;21587;-68
2021/07/13 05:48:44;;;;;;;6.75;4.30;;;;;;;25.10;61.17;99546.27;1632818;87;21068;-68
2021/07/13 05:51:10;;;;;;;8.48;4.35;;;;;;;25.15;61.25;99555.08;1632666;87;21540;-67
2021/07/13 05:53:38;;;;;;;10.05;4.65;;;;;;;25.22;61.23;99549.97;1633012;86;21098;-67
2021/07/13 05:56:05;;;;;;;6.62;4.17;;;;;;;25.28;61.07;99556.73;1632850;86;21008;-68
2021/07/13 05:58:31;;;;;;;5.35;4.60;;;;;;;25.32;60.37;99555.28;1632771;87;21126;-68
2021/07/13 06:01:01;;;;;;;5.78;3.85;;;;;;;25.35;60.48;99555.84;1631074;87;21073;-67
2021/07/13 06:03:27;;;;;;;5.17;4.47;;;;;;;25.40;60.06;99555.38;1632819;86;21059;-68
2021/07/13 06:05:56;;;;;;;10.15;5.08;;;;;;;25.38;59.71;99558.44;1632788;87;21043;-68
2021/07/13 06:08:23;;;;;;;8.78;4.87;;;;;;;25.41;60.02;99553.37;1620345;86;21521;-68
2021/07/13 06:10:53;;;;;;;5.85;3.95;;;;;;;25.47;60.42;99550.26;1637577;86;21036;-68
2021/07/13 06:13:19;;;;;;;8.70;4.40;;;;;;;25.56;60.51;99554.58;1644663;85;21043;-68
2021/07/13 06:15:46;;;;;;;9.48;4.17;;;;;;;25.64;59.92;99549.09;1632896;87;21609;-68
2021/07/13 06:18:21;;;;;;;10.03;3.67;;;;;;;25.72;59.47;99552.59;1632532;87;21054;-67
2021/07/13 06:20:49;;;;;;;11.12;3.80;;;;;;;25.80;59.53;99554.69;1633967;87;21073;-68
2021/07/13 06:23:15;;;;;;;7.87;4.78;;;;;;;25.83;58.22;99552.45;1633272;87;21122;-69
2021/07/13 06:25:44;;;;;;;7.67;4.10;;;;;;;25.84;58.48;99549.20;1632155;87;21088;-68
2021/07/13 06:28:11;;;;;;;9.03;4.45;;;;;;;25.90;58.82;99549.51;1647850;86;21070;-68
2021/07/13 06:30:39;;;;;;;16.73;5.92;;;;;;;25.95;59.03;99556.72;1651786;86;21131;-68
2021/07/13 06:33:07;;;;;;;45.73;29.67;;;;;;;26.00;59.05;99554.80;1634989;86;21003;-68
2021/07/13 06:35:33;;;;;;;27.95;16.93;;;;;;;26.07;59.45;99556.72;1632848;86;21129;-68
2021/07/13 06:38:01;;;;;;;12.35;9.43;;;;;;;26.13;59.16;99550.80;1632906;86;22126;-68
2021/07/13 06:40:27;;;;;;;12.90;6.80;;;;;;;26.20;58.90;99556.33;1639705;86;21372;-67
2021/07/13 06:42:53;;;;;;;33.95;24.57;;;;;;;26.26;58.63;99550.98;1639711;86;21497;-68
2021/07/13 06:45:21;;;;;;;24.80;20.80;;;;;;;26.33;58.93;99545.83;1637838;86;21055;-69
2021/07/13 06:47:54;;;;;;;21.12;12.58;;;;;;;26.43;58.61;99549.73;1641066;86;21481;-68
2021/07/13 06:50:17;;;;;;;8.28;7.00;;;;;;;26.52;58.33;99546.36;1637701;86;21087;-68
2021/07/13 06:52:43;;;;;;;9.08;5.90;;;;;;;26.61;58.44;99552.27;1637393;87;21133;-68
2021/07/13 06:55:13;;;;;;;20.52;13.13;;;;;;;26.72;58.43;99550.03;1639979;85;21517;-69
2021/07/13 06:57:41;;;;;;;16.45;6.35;;;;;;;26.86;58.22;99553.83;1639184;86;21019;-69
2021/07/13 07:00:10;;;;;;;8.85;5.75;;;;;;;26.96;57.58;99558.48;1625821;86;21165;-68
2021/07/13 07:02:36;;;;;;;21.52;15.83;;;;;;;27.05;56.81;99554.31;1639091;86;21029;-68
2021/07/13 07:05:03;;;;;;;6.92;5.50;;;;;;;27.09;56.77;99547.98;1636267;86;21544;-67
2021/07/13 07:07:31;;;;;;;6.22;5.03;;;;;;;27.16;56.50;99547.82;1637011;87;21020;-68
2021/07/13 07:09:57;;;;;;;19.70;15.15;;;;;;;27.24;55.83;99546.27;1640709;86;21090;-69
2021/07/13 07:12:24;;;;;;;11.65;8.28;;;;;;;27.32;55.84;99549.94;1638484;86;21186;-67
2021/07/13 07:14:50;;;;;;;7.78;5.33;;;;;;;27.40;55.95;99552.63;1637046;86;21480;-68
2021/07/13 07:17:16;;;;;;;7.60;5.00;;;;;;;27.51;55.89;99554.59;1611056;86;21039;-67
2021/07/13 07:19:42;;;;;;;9.70;5.08;;;;;;;27.64;55.44;99558.95;1633252;86;21521;-68
2021/07/13 07:22:09;;;;;;;9.15;7.42;;;;;;;27.69;54.40;99552.81;1636900;87;21091;-69
2021/07/13 07:24:35;;;;;;;11.53;5.83;;;;;;;27.64;53.76;99553.91;1638311;86;21119;-68
2021/07/13 07:27:03;;;;;;;6.33;5.12;;;;;;;27.51;54.65;99554.59;1637980;86;21208;-67
2021/07/13 07:29:29;;;;;;;11.63;4.70;;;;;;;27.36;54.53;99553.30;1637951;87;21076;-69
2021/07/13 07:31:57;;;;;;;8.90;5.75;;;;;;;27.30;54.79;99558.66;1635086;87;21575;-68
2021/07/13 07:34:24;;;;;;;8.30;4.62;;;;;;;27.31;54.71;99556.03;1634826;87;21057;-67
2021/07/13 07:36:50;;;;;;;8.30;5.37;;;;;;;27.33;54.91;99558.59;1638293;86;22180;-68
2021/07/13 07:39:17;;;;;;;6.47;4.35;;;;;;;27.42;55.14;99555.78;1647117;86;21000;-69
2021/07/13 07:41:44;;;;;;;8.28;5.20;;;;;;;27.51;54.70;99549.55;1658284;86;21028;-69
2021/07/13 07:44:10;;;;;;;9.83;4.45;;;;;;;27.57;54.58;99551.42;1658949;86;21523;-68
2021/07/13 07:46:41;;;;;;;6.37;5.40;;;;;;;27.59;54.12;99553.81;1659039;86;21052;-68
2021/07/13 07:49:06;;;;;;;13.53;5.10;;;;;;;27.57;54.06;99546.38;1656625;86;21588;-69
2021/07/13 07:51:33;;;;;;;13.10;5.70;;;;;;;27.55;54.56;99547.45;1658425;86;21111;-68
2021/07/13 07:54:00;;;;;;;9.80;5.67;;;;;;;27.58;54.29;99544.55;1658715;86;21015;-68
2021/07/13 07:56:27;;;;;;;12.90;5.30;;;;;;;27.64;53.75;99541.98;1659020;86;21059;-69
2021/07/13 07:58:53;;;;;;;14.38;6.22;;;;;;;27.72;54.26;99544.69;1658504;86;21066;-69
2021/07/13 08:01:20;;;;;;;7.78;5.45;;;;;;;27.77;54.23;99542.15;1658701;86;21873;-68
2021/07/13 08:03:49;;;;;;;7.15;5.35;;;;;;;27.73;53.98;99539.20;1658812;86;21115;-69
2021/07/13 08:06:17;;;;;;;9.15;5.40;;;;;;;27.72;54.00;99537.01;1658807;86;21027;-68
2021/07/13 08:08:46;;;;;;;9.68;6.67;;;;;;;27.82;55.30;99530.28;1624651;87;21056;-68
2021/07/13 08:11:12;;;;;;;10.60;5.35;;;;;;;27.98;55.38;99534.38;1621800;88;21481;-68
2021/07/13 08:13:40;;;;;;;11.25;5.92;;;;;;;28.10;53.83;99534.94;1621807;87;21040;-68
2021/07/13 08:16:08;;;;;;;8.70;5.87;;;;;;;28.13;53.09;99536.23;1621835;87;21120;-68
2021/07/13 08:18:40;;;;;;;7.00;5.70;;;;;;;28.18;53.96;99534.94;1621515;87;21547;-70
2021/07/13 08:21:06;;;;;;;7.12;5.33;;;;;;;28.28;54.50;99534.48;1621754;88;21551;-68
2021/07/13 08:23:33;;;;;;;7.55;6.28;;;;;;;28.39;53.83;99531.39;1621954;88;21027;-69
2021/07/13 08:25:59;;;;;;;8.08;5.47;;;;;;;28.50;53.55;99535.37;1620439;88;22033;-70
2021/07/13 08:28:25;;;;;;;8.53;5.78;;;;;;;28.61;52.87;99538.72;1620686;88;21047;-69
2021/07/13 08:30:52;;;;;;;8.85;5.72;;;;;;;28.55;52.15;99532.81;1621708;87;21099;-70
2021/07/13 08:33:19;;;;;;;11.22;6.62;;;;;;;28.27;52.29;99535.70;1621180;88;21111;-70
2021/07/13 08:35:46;;;;;;;10.35;6.28;;;;;;;27.89;52.76;99535.62;1620540;88;22074;-70
2021/07/13 08:38:13;;;;;;;8.93;5.45;;;;;;;27.66;54.15;99525.98;1621519;87;21020;-70
2021/07/13 08:40:42;;;;;;;8.25;5.55;;;;;;;27.64;54.98;99525.62;1620997;87;21494;-69
2021/07/13 08:43:09;;;;;;;7.10;5.53;;;;;;;27.80;53.95;99528.53;1621051;88;21083;-69
2021/07/13 08:45:35;;;;;;;9.15;6.67;;;;;;;28.04;54.21;99531.82;1621437;88;21041;-68
2021/07/13 08:48:04;;;;;;;8.48;6.22;;;;;;;28.27;53.94;99530.04;1621308;88;21429;-69
2021/07/13 08:50:31;;;;;;;30.08;23.90;;;;;;;28.52;54.04;99531.48;1621400;88;21118;-69
2021/07/13 08:53:00;;;;;;;11.45;8.65;;;;;;;28.75;52.35;99531.08;1621568;87;21109;-69
2021/07/13 08:55:28;;;;;;;9.63;5.97;;;;;;;28.87;50.91;99526.70;1618541;88;21351;-69
2021/07/13 08:57:54;;;;;;;15.60;8.45;;;;;;;28.87;50.35;99532.38;1621588;88;21382;-68
2021/07/13 09:00:22;;;;;;;8.63;6.30;;;;;;;28.96;51.44;99535.98;1614125;88;21596;-68
2021/07/13 09:03:12;;;;;;;9.00;5.85;;;;;;;29.12;51.31;99532.34;1616612;88;21124;-68
2021/07/13 09:05:44;;;;;;;10.45;5.87;;;;;;;29.29;50.26;99531.66;1619848;88;21074;-67
2021/07/13 09:08:15;;;;;;;8.00;5.28;;;;;;;29.46;50.17;99535.82;1618670;88;21077;-68
2021/07/13 09:11:17;;;;;;;17.45;12.90;;;;;;;29.62;50.15;99539.20;1620601;88;21096;-67
2021/07/13 09:13:56;;;;;;;9.65;5.62;;;;;;;29.76;50.65;99537.36;1620730;88;21032;-71
2021/07/13 09:16:33;;;;;;;9.85;6.35;;;;;;;29.93;48.19;99533.60;1620477;87;21561;-70
2021/07/13 09:19:01;;;;;;;8.65;6.60;;;;;;;30.01;48.79;99528.66;1621055;87;21488;-69
2021/07/13 09:21:33;;;;;;;11.83;7.72;;;;;;;30.10;49.94;99529.39;1621249;87;21093;-69
2021/07/13 09:24:14;;;;;;;8.85;7.95;;;;;;;30.20;49.42;99530.91;1622118;86;21024;-70
2021/07/13 09:26:53;;;;;;;7.72;6.37;;;;;;;30.31;49.83;99531.39;1622056;87;21050;-68
2021/07/13 09:29:35;;;;;;;42.65;32.50;;;;;;;30.39;48.06;99531.93;1619831;88;22076;-70
2021/07/13 09:32:32;;;;;;;15.33;12.53;;;;;;;30.44;47.38;99534.81;1613572;87;21064;-70
2021/07/13 09:35:07;;;;;;;10.15;5.90;;;;;;;30.43;47.38;99533.23;1601371;88;21126;-70
2021/07/13 09:37:38;;;;;;;9.90;6.00;;;;;;;30.49;46.52;99530.77;1622735;86;21075;-68
2021/07/13 09:40:14;;;;;;;10.13;5.67;;;;;;;30.54;46.17;99529.39;1616411;86;21640;-70
2021/07/13 09:42:49;;;;;;;8.45;5.33;;;;;;;30.60;46.79;99528.19;1585284;88;21112;-70
2021/07/13 09:45:32;;;;;;;7.90;5.08;;;;;;;30.71;46.92;99526.37;1610239;88;21523;-69
2021/07/13 09:48:11;;;;;;;;;;;;;;;30.78;47.33;99540.34;1612354;88;21099;-71
2021/07/13 09:50:45;;;;;;;10.10;5.92;;;;;;;30.89;46.22;99536.34;1611164;88;20208;-69
2021/07/13 09:53:17;;;;;;;6.58;4.80;;;;;;;30.93;45.60;99532.76;1610585;88;21512;-70
2021/07/13 09:55:48;;;;;;;9.70;6.33;;;;;;;30.90;45.87;99529.39;1611326;88;21541;-69
2021/07/13 09:58:20;;;;;;;17.42;14.20;;;;;;;30.89;46.53;99526.39;1611689;88;21052;-69
2021/07/13 10:00:58;;;;;;;14.87;10.18;;;;;;;30.94;46.58;99525.19;1610051;88;21051;-68
2021/07/13 10:03:25;;;;;;;9.38;5.85;;;;;;;30.87;46.76;99523.22;1605647;88;21118;-68
2021/07/13 10:05:54;;;;;;;9.43;5.65;;;;;;;30.86;46.23;99530.97;1605932;89;21596;-68
2021/07/13 10:08:21;;;;;;;7.08;5.70;;;;;;;30.87;46.40;99524.02;1605433;89;21158;-69
2021/07/13 10:10:49;;;;;;;10.70;7.95;;;;;;;30.93;45.81;99534.18;1605975;88;21119;-70
2021/07/13 10:13:16;;;;;;;7.15;5.72;;;;;;;31.02;46.94;99532.02;1611063;88;21086;-70
2021/07/13 10:15:49;;;;;;;10.43;6.17;;;;;;;31.14;46.61;99531.78;1588716;88;21027;-70
2021/07/13 10:18:17;;;;;;;10.03;6.40;;;;;;;31.22;46.06;99534.52;1611481;88;21078;-69
2021/07/13 10:20:49;;;;;;;8.18;5.67;;;;;;;31.32;45.68;99526.21;1612955;88;21101;-69
2021/07/13 10:23:17;;;;;;;8.63;5.53;;;;;;;31.30;45.32;99530.80;1598125;88;21052;-68
2021/07/13 10:25:44;;;;;;;10.20;6.25;;;;;;;31.38;45.37;99537.80;1594404;89;21114;-71
2021/07/13 10:28:12;;;;;;;5.83;5.22;;;;;;;31.47;46.19;99522.86;1619603;88;21119;-70
2021/07/13 10:30:42;;;;;;;10.18;5.42;;;;;;;31.57;45.82;99523.70;1623061;88;21124;-68
2021/07/13 10:33:35;;;;;;;16.35;9.03;;;;;;;31.64;45.17;99521.20;1623117;88;21754;-70
2021/07/13 10:36:30;;;;;;;5.90;5.33;;;;;;;31.72;44.99;99521.08;1622349;87;21024;-70
2021/07/13 10:39:24;;;;;;;16.70;13.22;;;;;;;31.80;45.02;99516.67;1620783;88;21130;-70
2021/07/13 10:41:52;;;;;;;11.50;5.90;;;;;;;31.82;42.97;99517.62;1619934;88;21119;-70
2021/07/13 10:44:45;;;;;;;9.83;5.37;;;;;;;31.53;44.51;99522.41;1623121;86;21096;-68
2021/07/13 10:47:30;;;;;;;8.95;5.47;;;;;;;31.50;45.42;99522.55;1623215;87;21693;-68
2021/07/13 10:50:28;;;;;;;7.17;5.17;;;;;;;31.54;45.26;99521.17;1622121;86;21096;-69
2021/07/13 10:53:23;;;;;;;9.83;5.35;;;;;;;31.58;45.00;99516.73;1606642;88;21088;-68
2021/07/13 10:55:52;;;;;;;7.15;5.60;;;;;;;31.65;44.82;99515.66;1639615;85;21035;-71
2021/07/13 10:58:41;;;;;;;8.13;4.90;;;;;;;31.79;45.64;99517.14;1636984;86;21077;-71
2021/07/13 11:01:15;;;;;;;13.25;5.12;;;;;;;31.85;44.64;99513.06;1603342;88;21156;-68
2021/07/13 11:03:47;;;;;;;6.58;4.45;;;;;;;31.94;46.03;99517.35;1597730;88;21135;-68
2021/07/13 11:06:17;;;;;;;13.03;4.97;;;;;;;32.01;45.38;99517.72;1625817;85;21553;-71
2021/07/13 11:08:52;;;;;;;7.15;5.03;;;;;;;32.08;45.40;99513.78;1598647;88;21031;-71
2021/07/13 11:11:34;;;;;;;5.87;4.87;;;;;;;32.17;44.90;99505.27;1606160;87;21095;-70
2021/07/13 11:14:05;;;;;;;5.97;4.85;;;;;;;32.22;43.71;99504.66;1601270;87;21576;-69
2021/07/13 11:16:39;;;;;;;11.65;5.25;;;;;;;32.28;43.64;99507.03;1598013;88;21024;-70
2021/07/13 11:19:15;;;;;;;8.13;4.85;;;;;;;32.33;43.33;99508.45;1634431;86;21047;-69
2021/07/13 11:21:47;;;;;;;9.25;4.90;;;;;;;32.34;43.34;99513.53;1622539;86;21518;-68
2021/07/13 11:24:18;;;;;;;11.35;4.97;;;;;;;32.38;43.54;99509.91;1623570;87;21927;-68
2021/07/13 11:26:48;;;;;;;9.10;5.42;;;;;;;32.40;43.87;99504.50;1625917;86;21172;-69
2021/07/13 11:29:25;;;;;;;4.75;4.30;;;;;;;32.38;43.05;99509.25;1624676;88;21119;-69
2021/07/13 11:31:59;;;;;;;7.83;5.12;;;;;;;32.33;42.97;99506.26;1600210;88;21178;-69
2021/07/13 11:34:32;;;;;;;4.95;4.28;;;;;;;32.31;42.70;99506.73;1610531;87;21119;-70
2021/07/13 11:37:01;;;;;;;7.25;4.60;;;;;;;32.29;43.67;99505.78;1606465;88;21100;-70
2021/07/13 11:39:33;;;;;;;12.00;4.47;;;;;;;32.30;43.03;99503.08;1601302;88;21986;-71
2021/07/13 11:42:08;;;;;;;7.65;4.67;;;;;;;32.31;42.47;99501.80;1665918;84;21604;-72
2021/07/13 11:44:38;;;;;;;7.72;4.80;;;;;;;32.30;41.97;99505.13;1626935;87;21113;-71
2021/07/13 11:47:15;;;;;;;11.20;4.62;;;;;;;32.27;43.60;99506.88;1656861;86;21047;-69